createdAt,value
2019-04-16T00:00:42.505Z,410.59
2019-04-16T00:01:44.373Z,411.56
2019-04-16T00:02:40.784Z,413.83
2019-04-16T00:03:39.776Z,411.02
2019-04-16T00:04:39.790Z,410.93
2019-04-16T00:05:39.759Z,412.06
2019-04-16T00:06:39.740Z,411.40
2019-04-16T00:07:39.732Z,410.57
2019-04-16T00:08:39.712Z,411.29
2019-04-16T00:09:39.746Z,412.11
2019-04-16T00:10:39.716Z,413.04
2019-04-16T00:11:39.684Z,411.67
2019-04-16T00:12:39.670Z,412.92
2019-04-16T00:13:39.652Z,410.38
2019-04-16T00:14:39.651Z,411.79
2019-04-16T00:15:41.439Z,411.99
2019-04-16T00:16:41.404Z,410.45
2019-04-16T00:17:39.617Z,409.35
2019-04-16T00:18:39.608Z,410.45
2019-04-16T00:19:39.595Z,410.55
2019-04-16T00:20:39.597Z,412.09
2019-04-16T00:21:41.178Z,411.10
2019-04-16T00:22:39.574Z,412.45
2019-04-16T00:23:39.543Z,411.19
2019-04-16T00:24:39.529Z,412.81
2019-04-16T00:25:39.571Z,411.40
2019-04-16T00:26:39.508Z,409.90
2019-04-16T00:27:39.508Z,411.32
2019-04-16T00:28:39.491Z,413.16
2019-04-16T00:29:39.910Z,411.11
2019-04-16T00:30:39.461Z,409.46
2019-04-16T00:31:39.483Z,409.35
2019-04-16T00:32:42.462Z,411.42
2019-04-16T00:33:42.653Z,411.61
2019-04-16T00:34:39.433Z,409.96
2019-04-16T00:35:39.408Z,410.22
2019-04-16T00:36:39.416Z,409.44
2019-04-16T00:37:39.395Z,411.34
2019-04-16T00:38:40.907Z,411.75
2019-04-16T00:39:39.405Z,410.35
2019-04-16T00:40:39.366Z,411.95
2019-04-16T00:41:39.383Z,410.87
2019-04-16T00:42:39.338Z,412.88
2019-04-16T00:43:39.332Z,410.70
2019-04-16T00:44:39.326Z,410.15
2019-04-16T00:45:39.315Z,409.93
2019-04-16T00:46:39.307Z,411.53
2019-04-16T00:47:39.300Z,409.64
2019-04-16T00:48:39.274Z,413.84
2019-04-16T00:49:39.270Z,409.49
2019-04-16T00:50:39.254Z,410.90
2019-04-16T00:51:39.261Z,410.87
2019-04-16T00:52:39.238Z,409.93
2019-04-16T00:53:39.763Z,409.39
2019-04-16T00:54:42.142Z,408.69
2019-04-16T00:55:39.193Z,411.06
2019-04-16T00:56:39.196Z,411.94
2019-04-16T00:57:39.176Z,410.90
2019-04-16T00:58:39.160Z,409.20
2019-04-16T00:59:39.157Z,413.74
2019-04-16T01:00:39.139Z,411.14
2019-04-16T01:01:39.137Z,410.31
2019-04-16T01:02:39.135Z,410.28
2019-04-16T01:03:39.117Z,412.29
2019-04-16T01:04:39.107Z,411.15
2019-04-16T01:05:39.104Z,410.94
2019-04-16T01:06:40.629Z,410.00
2019-04-16T01:07:39.072Z,412.59
2019-04-16T01:08:39.053Z,411.94
2019-04-16T01:09:39.041Z,410.75
2019-04-16T01:10:39.031Z,411.13
2019-04-16T01:11:39.025Z,409.92
2019-04-16T01:12:39.018Z,412.35
2019-04-16T01:13:38.990Z,410.96
2019-04-16T01:14:39.024Z,411.89
2019-04-16T01:15:38.974Z,413.06
2019-04-16T01:16:38.968Z,410.96
2019-04-16T01:17:39.002Z,410.44
2019-04-16T01:18:39.392Z,411.37
2019-04-16T01:19:41.078Z,410.14
2019-04-16T01:20:40.426Z,408.92
2019-04-16T01:21:38.905Z,410.09
2019-04-16T01:22:38.929Z,410.64
2019-04-16T01:23:38.903Z,413.03
2019-04-16T01:24:38.884Z,408.73
2019-04-16T01:25:38.866Z,410.59
2019-04-16T01:26:38.864Z,410.25
2019-04-16T01:27:38.868Z,412.67
2019-04-16T01:28:38.824Z,409.67
2019-04-16T01:29:38.812Z,411.23
2019-04-16T01:30:38.813Z,410.85
2019-04-16T01:31:39.310Z,411.17
2019-04-16T01:32:42.476Z,410.47
2019-04-16T01:33:38.775Z,410.06
2019-04-16T01:34:38.765Z,411.69
2019-04-16T01:35:38.765Z,409.79
2019-04-16T01:36:38.742Z,411.60
2019-04-16T01:37:38.770Z,410.60
2019-04-16T01:38:38.726Z,409.86
2019-04-16T01:39:38.735Z,410.65
2019-04-16T01:40:38.708Z,409.76
2019-04-16T01:41:38.682Z,409.23
2019-04-16T01:42:38.695Z,408.41
2019-04-16T01:43:38.664Z,410.29
2019-04-16T01:44:38.643Z,413.78
2019-04-16T01:45:38.640Z,409.75
2019-04-16T01:46:38.637Z,410.08
2019-04-16T01:47:38.640Z,407.68
2019-04-16T01:48:39.616Z,411.00
2019-04-16T01:49:39.283Z,408.81
2019-04-16T01:50:38.590Z,413.30
2019-04-16T01:51:38.579Z,411.04
2019-04-16T01:52:38.606Z,408.47
2019-04-16T01:53:38.569Z,410.26
2019-04-16T01:54:38.546Z,408.96
2019-04-16T01:55:38.557Z,407.55
2019-04-16T01:56:38.525Z,409.46
2019-04-16T01:57:38.512Z,411.45
2019-04-16T01:58:38.515Z,408.99
2019-04-16T01:59:38.494Z,411.90
2019-04-16T02:00:39.218Z,409.28
2019-04-16T02:01:40.346Z,411.76
2019-04-16T02:02:38.455Z,408.85
2019-04-16T02:03:38.469Z,411.00
2019-04-16T02:04:38.429Z,408.28
2019-04-16T02:05:38.446Z,407.94
2019-04-16T02:06:38.418Z,411.84
2019-04-16T02:07:38.399Z,409.80
2019-04-16T02:08:38.400Z,410.88
2019-04-16T02:09:38.373Z,409.90
2019-04-16T02:10:39.107Z,411.24
2019-04-16T02:11:38.807Z,410.40
2019-04-16T02:12:38.414Z,409.14
2019-04-16T02:13:38.356Z,410.27
2019-04-16T02:14:38.326Z,410.70
2019-04-16T02:15:38.332Z,410.59
2019-04-16T02:16:38.328Z,410.70
2019-04-16T02:17:38.285Z,410.50
2019-04-16T02:18:38.316Z,409.17
2019-04-16T02:19:38.266Z,411.23
2019-04-16T02:20:39.328Z,409.31
2019-04-16T02:21:38.985Z,409.47
2019-04-16T02:22:38.243Z,409.27
2019-04-16T02:23:38.227Z,408.79
2019-04-16T02:24:38.239Z,409.84
2019-04-16T02:25:38.211Z,410.30
2019-04-16T02:26:38.198Z,409.02
2019-04-16T02:27:38.192Z,411.16
2019-04-16T02:28:38.252Z,410.25
2019-04-16T02:29:38.177Z,409.17
2019-04-16T02:30:39.701Z,410.39
2019-04-16T02:31:38.140Z,409.65
2019-04-16T02:32:38.116Z,409.12
2019-04-16T02:33:38.126Z,409.38
2019-04-16T02:34:38.128Z,410.49
2019-04-16T02:35:38.093Z,409.57
2019-04-16T02:36:38.085Z,411.05
2019-04-16T02:37:38.086Z,410.16
2019-04-16T02:38:38.095Z,409.55
2019-04-16T02:39:49.064Z,407.84
2019-04-16T02:40:39.042Z,411.84
2019-04-16T02:41:38.036Z,410.00
2019-04-16T02:42:38.026Z,409.74
2019-04-16T02:43:40.888Z,409.73
2019-04-16T02:44:38.040Z,408.64
2019-04-16T02:45:37.984Z,409.00
2019-04-16T02:46:37.987Z,408.82
2019-04-16T02:47:41.907Z,409.09
2019-04-16T02:48:37.941Z,408.40
2019-04-16T02:49:37.949Z,410.11
2019-04-16T02:50:37.943Z,408.61
2019-04-16T02:51:41.226Z,408.32
2019-04-16T02:52:37.898Z,408.40
2019-04-16T02:53:37.903Z,409.25
2019-04-16T02:54:37.901Z,408.58
2019-04-16T02:55:42.600Z,409.19
2019-04-16T02:56:38.859Z,408.31
2019-04-16T02:57:37.861Z,408.95
2019-04-16T02:58:37.842Z,408.16
2019-04-16T02:59:37.856Z,410.69
2019-04-16T03:00:37.856Z,409.88
2019-04-16T03:01:37.795Z,411.12
2019-04-16T03:02:37.793Z,409.80
2019-04-16T03:03:37.790Z,409.67
2019-04-16T03:04:37.768Z,409.74
2019-04-16T03:05:37.774Z,409.44
2019-04-16T03:06:37.745Z,409.58
2019-04-16T03:07:37.731Z,410.53
2019-04-16T03:08:37.724Z,409.39
2019-04-16T03:09:40.253Z,409.64
2019-04-16T03:10:37.732Z,408.97
2019-04-16T03:11:37.715Z,408.02
2019-04-16T03:12:37.711Z,407.67
2019-04-16T03:13:37.666Z,408.14
2019-04-16T03:14:37.669Z,408.66
2019-04-16T03:15:37.666Z,408.11
2019-04-16T03:16:38.624Z,407.65
2019-04-16T03:17:39.643Z,407.84
2019-04-16T03:18:38.619Z,408.97
2019-04-16T03:19:39.024Z,410.27
2019-04-16T03:20:37.596Z,409.14
2019-04-16T03:21:37.607Z,411.40
2019-04-16T03:22:37.585Z,409.50
2019-04-16T03:23:37.839Z,409.41
2019-04-16T03:24:40.118Z,408.50
2019-04-16T03:25:37.541Z,409.98
2019-04-16T03:26:37.564Z,411.41
2019-04-16T03:27:37.524Z,409.15
2019-04-16T03:28:37.529Z,409.76
2019-04-16T03:29:37.551Z,409.48
2019-04-16T03:30:42.425Z,410.36
2019-04-16T03:31:38.513Z,408.83
2019-04-16T03:32:37.473Z,408.27
2019-04-16T03:33:37.457Z,410.72
2019-04-16T03:34:37.450Z,409.85
2019-04-16T03:35:37.427Z,410.20
2019-04-16T03:36:37.467Z,408.77
2019-04-16T03:37:37.411Z,407.41
2019-04-16T03:38:41.828Z,408.57
2019-04-16T03:39:37.394Z,407.38
2019-04-16T03:40:37.380Z,410.13
2019-04-16T03:41:37.371Z,408.63
2019-04-16T03:42:37.373Z,409.51
2019-04-16T03:43:37.357Z,410.39
2019-04-16T03:44:37.544Z,410.45
2019-04-16T03:45:37.570Z,407.65
2019-04-16T03:46:39.930Z,407.95
2019-04-16T03:47:37.363Z,408.20
2019-04-16T03:48:37.286Z,408.42
2019-04-16T03:49:37.289Z,408.55
2019-04-16T03:50:37.272Z,407.99
2019-04-16T03:51:37.257Z,407.90
2019-04-16T03:52:37.516Z,408.29
2019-04-16T03:53:37.229Z,407.55
2019-04-16T03:54:37.240Z,407.69
2019-04-16T03:55:37.228Z,408.35
2019-04-16T03:56:37.195Z,408.69
2019-04-16T03:57:37.213Z,409.80
2019-04-16T03:58:38.394Z,409.15
2019-04-16T03:59:39.947Z,410.93
2019-04-16T04:00:37.148Z,409.33
2019-04-16T04:01:37.177Z,409.74
2019-04-16T04:02:37.158Z,409.12
2019-04-16T04:03:37.137Z,408.31
2019-04-16T04:04:37.102Z,409.64
2019-04-16T04:05:37.096Z,409.37
2019-04-16T04:06:39.645Z,409.30
2019-04-16T04:07:37.110Z,410.72
2019-04-16T04:08:37.079Z,410.22
2019-04-16T04:09:37.065Z,407.74
2019-04-16T04:10:37.805Z,409.88
2019-04-16T04:11:40.892Z,409.74
2019-04-16T04:12:37.020Z,410.37
2019-04-16T04:13:37.024Z,408.90
2019-04-16T04:14:37.014Z,408.78
2019-04-16T04:15:36.998Z,409.55
2019-04-16T04:16:36.973Z,408.36
2019-04-16T04:17:38.806Z,409.08
2019-04-16T04:18:36.972Z,410.68
2019-04-16T04:19:36.951Z,408.84
2019-04-16T04:20:36.925Z,410.15
2019-04-16T04:21:36.930Z,409.99
2019-04-16T04:22:36.907Z,409.93
2019-04-16T04:23:36.935Z,408.44
2019-04-16T04:24:36.897Z,407.81
2019-04-16T04:25:37.098Z,409.26
2019-04-16T04:26:41.236Z,406.88
2019-04-16T04:27:37.864Z,406.95
2019-04-16T04:28:36.875Z,407.54
2019-04-16T04:29:36.831Z,407.36
2019-04-16T04:30:36.823Z,407.38
2019-04-16T04:31:36.809Z,407.53
2019-04-16T04:32:36.801Z,407.04
2019-04-16T04:33:40.712Z,407.81
2019-04-16T04:34:36.776Z,407.42
2019-04-16T04:35:36.767Z,408.24
2019-04-16T04:36:36.754Z,410.23
2019-04-16T04:37:36.759Z,410.01
2019-04-16T04:38:37.497Z,407.57
2019-04-16T04:39:36.729Z,407.08
2019-04-16T04:40:44.445Z,408.06
2019-04-16T04:41:37.721Z,407.53
2019-04-16T04:42:36.711Z,407.46
2019-04-16T04:43:36.718Z,407.35
2019-04-16T04:44:37.108Z,407.91
2019-04-16T04:45:37.743Z,409.45
2019-04-16T04:46:36.664Z,407.69
2019-04-16T04:47:36.660Z,408.65
2019-04-16T04:48:36.649Z,408.55
2019-04-16T04:49:36.648Z,410.64
2019-04-16T04:50:36.619Z,408.91
2019-04-16T04:51:42.689Z,409.80
2019-04-16T04:52:37.603Z,408.94
2019-04-16T04:53:36.584Z,408.88
2019-04-16T04:54:36.594Z,408.36
2019-04-16T04:55:36.566Z,410.88
2019-04-16T04:56:36.546Z,407.86
2019-04-16T04:57:36.552Z,409.97
2019-04-16T04:58:36.527Z,408.32
2019-04-16T04:59:37.451Z,408.96
2019-04-16T05:00:37.479Z,410.05
2019-04-16T05:01:36.488Z,409.75
2019-04-16T05:02:36.472Z,409.51
2019-04-16T05:03:36.495Z,410.56
2019-04-16T05:04:36.514Z,410.08
2019-04-16T05:05:36.448Z,410.88
2019-04-16T05:06:36.427Z,410.22
2019-04-16T05:07:36.439Z,411.23
2019-04-16T05:08:36.404Z,410.61
2019-04-16T05:09:36.825Z,409.75
2019-04-16T05:10:39.791Z,409.89
2019-04-16T05:11:37.374Z,409.27
2019-04-16T05:12:36.362Z,409.97
2019-04-16T05:13:36.357Z,407.80
2019-04-16T05:14:36.474Z,411.08
2019-04-16T05:15:36.329Z,408.20
2019-04-16T05:16:36.324Z,411.06
2019-04-16T05:17:38.605Z,409.99
2019-04-16T05:18:38.309Z,409.55
2019-04-16T05:19:37.323Z,411.57
2019-04-16T05:20:36.269Z,410.95
2019-04-16T05:21:36.266Z,409.12
2019-04-16T05:22:36.252Z,409.75
2019-04-16T05:23:37.673Z,409.58
2019-04-16T05:24:37.647Z,409.99
2019-04-16T05:25:36.266Z,411.16
2019-04-16T05:26:37.065Z,408.46
2019-04-16T05:27:40.289Z,409.03
2019-04-16T05:28:36.201Z,410.26
2019-04-16T05:29:36.221Z,409.72
2019-04-16T05:30:36.182Z,410.41
2019-04-16T05:31:36.150Z,409.41
2019-04-16T05:32:36.183Z,412.01
2019-04-16T05:33:37.428Z,409.70
2019-04-16T05:34:37.410Z,408.29
2019-04-16T05:35:38.578Z,409.09
2019-04-16T05:36:40.068Z,411.53
2019-04-16T05:37:36.088Z,409.27
2019-04-16T05:38:36.089Z,409.27
2019-04-16T05:39:36.059Z,408.17
2019-04-16T05:40:36.084Z,409.06
2019-04-16T05:41:36.045Z,409.38
2019-04-16T05:42:36.041Z,411.48
2019-04-16T05:43:36.079Z,411.11
2019-04-16T05:44:35.997Z,408.88
2019-04-16T05:45:37.821Z,409.56
2019-04-16T05:46:38.398Z,409.13
2019-04-16T05:47:35.973Z,410.38
2019-04-16T05:48:35.964Z,409.49
2019-04-16T05:49:35.958Z,409.74
2019-04-16T05:50:35.969Z,409.43
2019-04-16T05:51:36.005Z,409.21
2019-04-16T05:52:36.657Z,408.07
2019-04-16T05:53:37.397Z,409.06
2019-04-16T05:54:35.894Z,408.18
2019-04-16T05:55:35.961Z,410.17
2019-04-16T05:56:35.897Z,409.36
2019-04-16T05:57:35.869Z,410.58
2019-04-16T05:58:35.870Z,408.81
2019-04-16T05:59:35.847Z,409.14
2019-04-16T06:00:38.597Z,408.21
2019-04-16T06:01:36.993Z,410.26
2019-04-16T06:02:35.807Z,409.65
2019-04-16T06:03:35.807Z,410.62
2019-04-16T06:04:35.797Z,411.43
2019-04-16T06:05:35.785Z,411.29
2019-04-16T06:06:35.794Z,409.29
2019-04-16T06:07:37.982Z,409.64
2019-04-16T06:08:40.406Z,411.17
2019-04-16T06:09:36.728Z,410.29
2019-04-16T06:10:35.729Z,411.08
2019-04-16T06:11:36.675Z,409.34
2019-04-16T06:12:39.526Z,409.28
2019-04-16T06:13:35.679Z,408.93
2019-04-16T06:14:35.669Z,410.05
2019-04-16T06:15:35.996Z,409.00
2019-04-16T06:16:35.665Z,410.74
2019-04-16T06:17:35.658Z,409.18
2019-04-16T06:18:38.037Z,408.65
2019-04-16T06:19:35.642Z,410.93
2019-04-16T06:20:35.607Z,409.00
2019-04-16T06:21:35.626Z,409.37
2019-04-16T06:22:35.589Z,408.26
2019-04-16T06:23:35.599Z,408.23
2019-04-16T06:24:36.131Z,409.65
2019-04-16T06:25:40.899Z,408.96
2019-04-16T06:26:36.602Z,408.55
2019-04-16T06:27:35.528Z,408.44
2019-04-16T06:28:35.553Z,408.48
2019-04-16T06:29:35.516Z,409.29
2019-04-16T06:30:35.506Z,409.58
2019-04-16T06:31:36.221Z,409.79
2019-04-16T06:32:35.483Z,409.34
2019-04-16T06:33:35.463Z,411.16
2019-04-16T06:34:35.455Z,410.71
2019-04-16T06:35:42.988Z,409.81
2019-04-16T06:36:36.438Z,409.86
2019-04-16T06:37:35.434Z,410.54
2019-04-16T06:38:35.419Z,408.77
2019-04-16T06:39:35.399Z,409.24
2019-04-16T06:40:35.384Z,409.35
2019-04-16T06:41:41.844Z,409.59
2019-04-16T06:42:38.524Z,409.49
2019-04-16T06:43:35.350Z,408.67
2019-04-16T06:44:35.360Z,409.14
2019-04-16T06:45:37.057Z,409.17
2019-04-16T06:46:39.461Z,408.51
2019-04-16T06:47:35.360Z,407.63
2019-04-16T06:48:35.345Z,408.94
2019-04-16T06:49:35.294Z,409.13
2019-04-16T06:50:39.587Z,408.77
2019-04-16T06:51:36.270Z,409.59
2019-04-16T06:52:35.248Z,408.53
2019-04-16T06:53:35.263Z,409.88
2019-04-16T06:54:35.233Z,409.34
2019-04-16T06:55:36.209Z,409.91
2019-04-16T06:56:37.355Z,410.73
2019-04-16T06:57:36.211Z,410.68
2019-04-16T06:58:50.299Z,410.29
2019-04-16T06:59:36.167Z,410.03
2019-04-16T07:00:35.316Z,408.91
2019-04-16T07:01:37.447Z,410.54
2019-04-16T07:02:37.388Z,409.38
2019-04-16T07:03:35.132Z,410.46
2019-04-16T07:04:35.121Z,410.90
2019-04-16T07:05:35.107Z,409.99
2019-04-16T07:06:36.298Z,409.28
2019-04-16T07:07:40.049Z,409.04
2019-04-16T07:08:38.126Z,409.81
2019-04-16T07:09:41.504Z,410.34
2019-04-16T07:10:44.401Z,410.14
2019-04-16T07:11:36.035Z,410.54
2019-04-16T07:12:38.489Z,410.50
2019-04-16T07:13:35.032Z,409.52
2019-04-16T07:14:36.191Z,409.19
2019-04-16T07:15:35.010Z,410.00
2019-04-16T07:16:34.996Z,409.31
2019-04-16T07:17:34.965Z,409.62
2019-04-16T07:18:35.526Z,409.96
2019-04-16T07:19:34.947Z,410.29
2019-04-16T07:20:34.941Z,408.19
2019-04-16T07:21:34.937Z,409.31
2019-04-16T07:22:34.939Z,408.78
2019-04-16T07:23:35.109Z,408.72
2019-04-16T07:24:37.026Z,409.36
2019-04-16T07:25:39.445Z,409.42
2019-04-16T07:26:38.564Z,409.36
2019-04-16T07:27:38.248Z,410.21
2019-04-16T07:28:35.003Z,411.18
2019-04-16T07:29:34.876Z,410.59
2019-04-16T07:30:38.477Z,410.83
2019-04-16T07:31:35.257Z,410.97
2019-04-16T07:32:34.800Z,411.76
2019-04-16T07:33:34.812Z,410.75
2019-04-16T07:34:34.874Z,410.17
2019-04-16T07:35:34.798Z,411.55
2019-04-16T07:36:34.769Z,410.26
2019-04-16T07:37:34.752Z,412.27
2019-04-16T07:38:35.429Z,411.96
2019-04-16T07:39:37.098Z,411.35
2019-04-16T07:40:34.716Z,411.13
2019-04-16T07:41:34.699Z,411.84
2019-04-16T07:42:34.689Z,411.54
2019-04-16T07:43:34.723Z,411.89
2019-04-16T07:44:36.537Z,410.34
2019-04-16T07:45:34.690Z,410.19
2019-04-16T07:46:34.720Z,409.89
2019-04-16T07:47:34.643Z,410.36
2019-04-16T07:48:34.683Z,409.76
2019-04-16T07:49:34.610Z,410.14
2019-04-16T07:50:34.608Z,410.05
2019-04-16T07:51:36.102Z,411.12
2019-04-16T07:52:34.576Z,411.80
2019-04-16T07:53:34.574Z,411.75
2019-04-16T07:54:34.549Z,410.38
2019-04-16T07:55:34.544Z,410.25
2019-04-16T07:56:34.530Z,410.47
2019-04-16T07:57:34.527Z,411.01
2019-04-16T07:58:34.529Z,410.38
2019-04-16T07:59:34.503Z,410.85
2019-04-16T08:00:34.481Z,409.27
2019-04-16T08:01:34.480Z,409.73
2019-04-16T08:02:34.463Z,410.62
2019-04-16T08:03:34.473Z,411.09
2019-04-16T08:04:35.606Z,409.81
2019-04-16T08:05:34.438Z,411.58
2019-04-16T08:06:34.429Z,412.32
2019-04-16T08:07:34.411Z,411.11
2019-04-16T08:08:34.429Z,410.59
2019-04-16T08:09:34.381Z,410.68
2019-04-16T08:10:34.392Z,410.32
2019-04-16T08:11:34.355Z,410.62
2019-04-16T08:12:34.360Z,411.17
2019-04-16T08:13:34.421Z,410.27
2019-04-16T08:14:34.355Z,409.35
2019-04-16T08:15:34.319Z,410.44
2019-04-16T08:16:46.572Z,410.69
2019-04-16T08:17:35.302Z,410.66
2019-04-16T08:18:34.299Z,410.78
2019-04-16T08:19:37.126Z,411.29
2019-04-16T08:20:34.255Z,411.48
2019-04-16T08:21:34.258Z,411.25
2019-04-16T08:22:34.263Z,412.43
2019-04-16T08:23:34.220Z,411.14
2019-04-16T08:24:34.235Z,410.80
2019-04-16T08:25:34.979Z,411.33
2019-04-16T08:26:34.197Z,409.87
2019-04-16T08:27:34.192Z,411.66
2019-04-16T08:28:34.193Z,410.92
2019-04-16T08:29:34.189Z,412.09
2019-04-16T08:30:37.241Z,410.77
2019-04-16T08:31:35.137Z,410.34
2019-04-16T08:32:34.127Z,411.55
2019-04-16T08:33:34.189Z,412.38
2019-04-16T08:34:34.121Z,411.19
2019-04-16T08:35:34.107Z,410.51
2019-04-16T08:36:34.146Z,411.76
2019-04-16T08:37:48.014Z,411.13
2019-04-16T08:38:35.062Z,410.54
2019-04-16T08:39:36.827Z,411.85
2019-04-16T08:40:35.058Z,411.59
2019-04-16T08:41:34.033Z,411.69
2019-04-16T08:42:43.946Z,409.93
2019-04-16T08:43:35.018Z,411.88
2019-04-16T08:44:35.653Z,412.01
2019-04-16T08:45:39.138Z,411.37
2019-04-16T08:46:34.981Z,410.08
2019-04-16T08:47:33.962Z,411.42
2019-04-16T08:48:33.969Z,411.04
2019-04-16T08:49:33.947Z,412.04
2019-04-16T08:50:33.949Z,410.15
2019-04-16T08:51:37.028Z,411.69
2019-04-16T08:52:33.958Z,411.38
2019-04-16T08:53:35.607Z,411.21
2019-04-16T08:54:33.872Z,411.05
2019-04-16T08:55:33.878Z,411.61
2019-04-16T08:56:33.998Z,413.41
2019-04-16T08:57:34.026Z,410.75
2019-04-16T08:58:35.722Z,409.60
2019-04-16T08:59:33.827Z,410.23
2019-04-16T09:00:33.843Z,410.97
2019-04-16T09:01:33.879Z,410.97
2019-04-16T09:02:33.793Z,412.41
2019-04-16T09:03:33.785Z,413.25
2019-04-16T09:04:34.715Z,409.95
2019-04-16T09:05:33.952Z,412.68
2019-04-16T09:06:33.804Z,409.47
2019-04-16T09:07:33.806Z,409.40
2019-04-16T09:08:33.807Z,407.35
2019-04-16T09:09:33.719Z,413.00
2019-04-16T09:10:33.693Z,413.10
2019-04-16T09:11:35.313Z,411.92
2019-04-16T09:12:33.746Z,411.39
2019-04-16T09:13:33.731Z,412.08
2019-04-16T09:14:33.656Z,411.70
2019-04-16T09:15:33.645Z,413.77
2019-04-16T09:16:33.654Z,409.40
2019-04-16T09:17:33.629Z,409.10
2019-04-16T09:18:33.620Z,411.70
2019-04-16T09:19:33.589Z,411.49
2019-04-16T09:20:34.730Z,412.76
2019-04-16T09:21:33.610Z,413.97
2019-04-16T09:22:47.836Z,410.69
2019-04-16T09:23:34.558Z,414.48
2019-04-16T09:24:33.542Z,412.93
2019-04-16T09:25:33.535Z,414.27
2019-04-16T09:26:33.536Z,413.85
2019-04-16T09:27:34.287Z,414.00
2019-04-16T09:28:33.500Z,412.74
2019-04-16T09:29:33.487Z,407.78
2019-04-16T09:30:33.478Z,415.33
2019-04-16T09:31:33.481Z,412.71
2019-04-16T09:32:33.460Z,414.76
2019-04-16T09:33:34.392Z,410.22
2019-04-16T09:34:35.603Z,413.76
2019-04-16T09:35:34.424Z,414.22
2019-04-16T09:36:33.441Z,414.18
2019-04-16T09:37:35.780Z,412.48
2019-04-16T09:38:33.395Z,410.16
2019-04-16T09:39:33.401Z,413.97
2019-04-16T09:40:33.585Z,411.54
2019-04-16T09:41:33.614Z,415.86
2019-04-16T09:42:33.347Z,414.05
2019-04-16T09:43:33.321Z,414.44
2019-04-16T09:44:35.337Z,411.85
2019-04-16T09:45:33.827Z,413.61
2019-04-16T09:46:50.317Z,415.42
2019-04-16T09:47:34.299Z,415.12
2019-04-16T09:48:34.786Z,414.53
2019-04-16T09:49:34.369Z,412.47
2019-04-16T09:50:33.253Z,414.34
2019-04-16T09:51:33.251Z,415.48
2019-04-16T09:52:33.226Z,413.94
2019-04-16T09:53:34.522Z,412.72
2019-04-16T09:54:34.214Z,415.60
2019-04-16T09:55:33.190Z,413.63
2019-04-16T09:56:33.284Z,414.27
2019-04-16T09:57:33.178Z,412.83
2019-04-16T09:58:34.917Z,411.31
2019-04-16T09:59:33.145Z,410.89
2019-04-16T10:00:33.147Z,414.50
2019-04-16T10:01:33.147Z,414.10
2019-04-16T10:02:33.121Z,414.46
2019-04-16T10:03:33.105Z,414.94
2019-04-16T10:04:33.102Z,413.58
2019-04-16T10:05:33.099Z,413.24
2019-04-16T10:06:33.083Z,413.11
2019-04-16T10:07:33.087Z,411.43
2019-04-16T10:08:33.077Z,411.32
2019-04-16T10:09:33.046Z,413.27
2019-04-16T10:10:33.048Z,410.84
2019-04-16T10:11:35.718Z,413.71
2019-04-16T10:12:33.015Z,411.48
2019-04-16T10:13:35.837Z,410.79
2019-04-16T10:14:32.991Z,411.41
2019-04-16T10:15:32.972Z,408.88
2019-04-16T10:16:32.983Z,414.67
2019-04-16T10:17:32.939Z,412.34
2019-04-16T10:18:35.218Z,413.87
2019-04-16T10:19:32.923Z,413.96
2019-04-16T10:20:32.932Z,409.47
2019-04-16T10:21:32.943Z,415.62
2019-04-16T10:22:32.907Z,414.38
2019-04-16T10:23:32.882Z,415.02
2019-04-16T10:24:32.863Z,413.15
2019-04-16T10:25:33.734Z,413.62
2019-04-16T10:26:32.868Z,407.14
2019-04-16T10:27:32.843Z,415.18
2019-04-16T10:28:33.896Z,412.42
2019-04-16T10:29:32.822Z,414.21
2019-04-16T10:30:32.820Z,412.33
2019-04-16T10:31:32.803Z,411.61
2019-04-16T10:32:32.791Z,413.59
2019-04-16T10:33:32.806Z,414.37
2019-04-16T10:34:36.064Z,411.96
2019-04-16T10:35:32.758Z,417.95
2019-04-16T10:36:37.165Z,415.33
2019-04-16T10:37:33.730Z,411.83
2019-04-16T10:38:32.733Z,409.51
2019-04-16T10:39:32.740Z,411.53
2019-04-16T10:40:32.714Z,415.53
2019-04-16T10:41:32.720Z,413.89
2019-04-16T10:42:32.669Z,411.11
2019-04-16T10:43:43.824Z,411.70
2019-04-16T10:44:33.710Z,413.81
2019-04-16T10:45:32.631Z,412.79
2019-04-16T10:46:32.642Z,411.25
2019-04-16T10:47:35.626Z,411.18
2019-04-16T10:48:32.662Z,411.37
2019-04-16T10:49:32.578Z,417.95
2019-04-16T10:50:32.594Z,411.44
2019-04-16T10:51:32.582Z,413.74
2019-04-16T10:52:32.561Z,412.89
2019-04-16T10:53:32.555Z,414.79
2019-04-16T10:54:33.785Z,410.60
2019-04-16T10:55:32.533Z,415.73
2019-04-16T10:56:32.533Z,412.33
2019-04-16T10:57:32.514Z,413.36
2019-04-16T10:58:32.479Z,416.57
2019-04-16T10:59:32.489Z,411.75
2019-04-16T11:00:32.491Z,407.81
2019-04-16T11:01:34.973Z,417.54
2019-04-16T11:02:32.489Z,413.74
2019-04-16T11:03:34.834Z,411.50
2019-04-16T11:04:32.416Z,414.87
2019-04-16T11:05:32.422Z,414.28
2019-04-16T11:06:32.418Z,415.94
2019-04-16T11:07:32.847Z,408.40
2019-04-16T11:08:32.765Z,415.12
2019-04-16T11:09:32.430Z,413.60
2019-04-16T11:10:32.880Z,411.30
2019-04-16T11:11:32.382Z,416.04
2019-04-16T11:12:32.399Z,415.67
2019-04-16T11:13:32.310Z,415.22
2019-04-16T11:14:32.324Z,412.00
2019-04-16T11:15:32.302Z,414.23
2019-04-16T11:16:32.330Z,413.63
2019-04-16T11:17:32.296Z,413.32
2019-04-16T11:18:32.268Z,411.73
2019-04-16T11:19:32.261Z,416.83
2019-04-16T11:20:32.241Z,416.94
2019-04-16T11:21:32.251Z,414.96
2019-04-16T11:22:32.229Z,414.66
2019-04-16T11:23:32.232Z,412.71
2019-04-16T11:24:32.239Z,416.15
2019-04-16T11:25:32.182Z,416.02
2019-04-16T11:26:32.231Z,414.07
2019-04-16T11:27:32.184Z,414.50
2019-04-16T11:28:32.169Z,415.21
2019-04-16T11:29:32.145Z,414.80
2019-04-16T11:30:32.159Z,415.07
2019-04-16T11:31:32.117Z,415.24
2019-04-16T11:32:32.161Z,419.23
2019-04-16T11:33:32.092Z,415.18
2019-04-16T11:34:32.100Z,414.28
2019-04-16T11:35:32.078Z,414.20
2019-04-16T11:36:32.090Z,413.84
2019-04-16T11:37:36.026Z,414.22
2019-04-16T11:38:32.082Z,415.43
2019-04-16T11:39:32.033Z,411.70
2019-04-16T11:40:32.055Z,421.16
2019-04-16T11:41:32.006Z,414.48
2019-04-16T11:42:32.062Z,412.81
2019-04-16T11:43:32.040Z,412.40
2019-04-16T11:44:32.015Z,411.44
2019-04-16T11:45:31.963Z,413.70
2019-04-16T11:46:31.954Z,416.41
2019-04-16T11:47:34.114Z,417.66
2019-04-16T11:48:37.298Z,419.05
2019-04-16T11:49:32.925Z,416.82
2019-04-16T11:50:32.916Z,413.59
2019-04-16T11:51:31.930Z,417.89
2019-04-16T11:52:31.909Z,415.79
2019-04-16T11:53:31.887Z,415.23
2019-04-16T11:54:31.864Z,414.38
2019-04-16T11:55:31.855Z,412.63
2019-04-16T11:56:31.845Z,414.13
2019-04-16T11:57:33.361Z,415.01
2019-04-16T11:58:31.874Z,414.32
2019-04-16T11:59:31.813Z,415.21
2019-04-16T12:00:31.779Z,411.35
2019-04-16T12:01:31.805Z,418.63
2019-04-16T12:02:31.778Z,411.45
2019-04-16T12:03:34.762Z,412.32
2019-04-16T12:04:31.769Z,415.86
2019-04-16T12:05:31.737Z,416.40
2019-04-16T12:06:31.720Z,413.88
2019-04-16T12:07:31.737Z,418.23
2019-04-16T12:08:31.756Z,412.98
2019-04-16T12:09:31.694Z,416.58
2019-04-16T12:10:31.700Z,413.76
2019-04-16T12:11:31.677Z,414.40
2019-04-16T12:12:31.674Z,414.96
2019-04-16T12:13:31.689Z,412.43
2019-04-16T12:14:34.631Z,413.39
2019-04-16T12:15:31.645Z,418.73
2019-04-16T12:16:31.676Z,412.84
2019-04-16T12:17:31.606Z,416.51
2019-04-16T12:18:32.158Z,413.57
2019-04-16T12:19:31.588Z,417.31
2019-04-16T12:20:31.608Z,416.55
2019-04-16T12:21:31.588Z,419.82
2019-04-16T12:22:31.554Z,412.64
2019-04-16T12:23:31.565Z,416.60
2019-04-16T12:24:31.543Z,414.19
2019-04-16T12:25:31.506Z,417.88
2019-04-16T12:26:31.517Z,414.80
2019-04-16T12:27:31.531Z,414.19
2019-04-16T12:28:31.539Z,418.94